Time;durP1;ratioP1;P1;durP2;ratioP2;P2;SDS_P1;SDS_P2;PMS_P1;PMS_P2;Temp;Humidity;BMP_temperature;BMP_pressure;BME280_temperature;BME280_humidity;BME280_pressure;Samples;Min_cycle;Max_cycle;Signal;HPM_P1;HPM_P2
2022/07/01 00:01:25;;;;;;;;;1.33;1.00;;;;;17.35;58.33;101082.34;5017984;28;45336;-75
2022/07/01 00:03:50;;;;;;;;;1.67;1.00;;;;;17.38;58.58;101093.19;5015953;28;45518;-74
2022/07/01 00:06:19;;;;;;;;;1.33;1.00;;;;;17.44;58.29;101120.22;5015495;28;45664;-75
2022/07/01 00:08:45;;;;;;;;;3.00;1.00;;;;;17.63;58.96;101156.28;5015872;28;45546;-75
2022/07/01 00:11:11;;;;;;;;;1.00;1.00;;;;;17.59;58.87;101153.59;5015934;28;45340;-75
2022/07/01 00:13:36;;;;;;;;;0.67;0.67;;;;;17.34;58.62;101112.97;5014052;28;45597;-75
2022/07/01 00:16:05;;;;;;;;;2.33;1.67;;;;;17.63;58.65;101161.69;5015016;28;46056;-75
2022/07/01 00:18:30;;;;;;;;;4.00;1.00;;;;;17.63;59.05;101175.22;5013827;28;45522;-74
2022/07/01 00:20:56;;;;;;;;;1.00;1.00;;;;;16.52;59.03;100971.28;5015607;28;45406;-74
2022/07/01 00:23:22;;;;;;;;;1.00;1.00;;;;;16.78;58.94;101025.38;5013539;28;45499;-74
2022/07/01 00:25:48;;;;;;;;;1.00;1.00;;;;;17.54;59.18;101175.19;5015103;28;45413;-77
2022/07/01 00:28:13;;;;;;;;;1.00;1.00;;;;;17.52;59.41;101174.25;5015611;28;45466;-75
2022/07/01 00:30:38;;;;;;;;;1.33;1.33;;;;;17.53;59.41;101178.78;5015651;28;45447;-74
2022/07/01 00:33:04;;;;;;;;;1.00;1.00;;;;;17.14;59.28;101137.16;5013907;28;45570;-72
2022/07/01 00:35:30;;;;;;;;;1.00;1.00;;;;;17.47;58.69;101189.53;5015430;28;46361;-74
2022/07/01 00:37:55;;;;;;;;;1.67;1.00;;;;;17.05;59.07;101120.91;5015500;28;45848;-75
2022/07/01 00:40:21;;;;;;;;;2.00;2.00;;;;;17.39;59.25;101191.31;5015946;28;45659;-76
2022/07/01 00:42:46;;;;;;;;;0.00;0.00;;;;;17.41;58.85;101189.53;5012588;28;45355;-76
2022/07/01 00:45:12;;;;;;;;;1.00;1.00;;;;;17.08;59.12;101142.53;5015198;28;45787;-75
2022/07/01 00:47:42;;;;;;;;;0.00;0.00;;;;;17.37;59.50;101196.69;5015598;28;45460;-75
2022/07/01 00:50:10;;;;;;;;;1.00;1.00;;;;;17.41;59.14;101190.44;5015221;28;45561;-74
2022/07/01 00:52:35;;;;;;;;;1.00;1.00;;;;;17.42;59.16;101188.63;5014418;28;45532;-75
2022/07/01 00:55:06;;;;;;;;;0.00;0.00;;;;;16.96;58.85;101121.78;5014705;28;46265;-73
2022/07/01 00:57:34;;;;;;;;;1.33;1.00;;;;;16.95;59.25;101122.66;5015459;28;45680;-75
2022/07/01 01:00:09;;;;;;;;;3.00;1.00;;;;;17.31;59.02;101191.28;5014768;28;45489;-76
2022/07/01 01:02:35;;;;;;;;;1.00;1.00;;;;;16.98;59.62;101136.19;5013659;28;45424;-75
2022/07/01 01:05:02;;;;;;;;;0.00;0.00;;;;;16.40;59.36;101051.22;5015376;28;45662;-74
2022/07/01 01:07:28;;;;;;;;;2.00;2.00;;;;;17.28;59.78;101194.84;5012717;28;45533;-74
2022/07/01 01:09:54;;;;;;;;;0.67;0.67;;;;;17.08;59.94;101167.72;5015009;28;45297;-74
2022/07/01 01:12:19;;;;;;;;;1.00;1.00;;;;;17.28;59.63;101204.75;5014063;28;45498;-74
2022/07/01 01:14:50;;;;;;;;;1.00;1.00;;;;;17.20;60.09;101212.81;5014918;28;45435;-74
2022/07/01 01:17:17;;;;;;;;;0.00;0.00;;;;;16.37;60.16;101066.47;5012522;28;46051;-74
2022/07/01 01:19:43;;;;;;;;;1.67;0.00;;;;;17.08;60.35;101181.22;5013499;28;45606;-76
2022/07/01 01:22:10;;;;;;;;;0.33;0.33;;;;;16.39;60.05;101064.69;5012609;28;45272;-75
2022/07/01 01:24:36;;;;;;;;;0.67;0.67;;;;;17.24;59.64;101211.03;5014349;28;45474;-75
2022/07/01 01:27:04;;;;;;;;;0.00;0.00;;;;;16.58;59.97;101100.78;5011417;28;45529;-77
2022/07/01 01:29:29;;;;;;;;;2.00;1.00;;;;;17.23;59.83;101211.94;5014797;28;45431;-75
2022/07/01 01:31:54;;;;;;;;;0.67;0.67;;;;;17.03;60.41;101179.41;5015209;28;45549;-73
2022/07/01 01:34:20;;;;;;;;;0.00;0.00;;;;;17.09;59.79;101191.16;5015631;28;45343;-73
2022/07/01 01:36:45;;;;;;;;;1.00;1.00;;;;;16.98;60.44;101200.97;5015230;28;45296;-74
2022/07/01 01:39:15;;;;;;;;;0.00;0.00;;;;;17.21;59.97;101216.41;5014598;28;45590;-75
2022/07/01 01:41:41;;;;;;;;;1.00;1.00;;;;;17.20;60.55;101222.72;5015441;28;45615;-74
2022/07/01 01:44:06;;;;;;;;;1.00;1.00;;;;;17.17;60.04;101231.69;5014481;28;46618;-74
2022/07/01 01:46:32;;;;;;;;;1.00;1.00;;;;;17.15;60.65;101228.06;5010846;28;45766;-74
2022/07/01 01:48:58;;;;;;;;;3.00;1.00;;;;;17.13;60.53;101222.66;5014590;28;45536;-74
2022/07/01 01:51:23;;;;;;;;;0.33;0.33;;;;;16.99;60.67;101204.56;5014800;28;45414;-74
2022/07/01 01:53:49;;;;;;;;;0.00;0.00;;;;;17.11;60.97;101226.25;5014262;28;45634;-74
2022/07/01 01:56:15;;;;;;;;;1.00;1.00;;;;;16.59;60.48;101134.97;5008656;28;45293;-74
2022/07/01 01:58:44;;;;;;;;;1.00;0.00;;;;;16.98;60.30;101200.97;5012099;28;45461;-74
2022/07/01 02:01:11;;;;;;;;;2.00;2.00;;;;;17.16;60.72;101238.00;5008220;28;45728;-74
2022/07/01 02:03:37;;;;;;;;;1.67;0.33;;;;;17.16;61.04;101242.47;5013823;28;45371;-74
2022/07/01 02:06:04;;;;;;;;;0.33;0.33;;;;;16.94;60.71;101204.50;5012987;28;45425;-74
2022/07/01 02:08:30;;;;;;;;;1.00;1.00;;;;;17.15;60.66;101237.97;5014126;28;45525;-74
2022/07/01 02:10:55;;;;;;;;;3.00;1.00;;;;;16.54;60.53;101144.81;5014375;28;45391;-75
2022/07/01 02:13:21;;;;;;;;;0.67;0.67;;;;;16.65;60.59;101163.81;5012731;28;45367;-74
2022/07/01 02:15:48;;;;;;;;;2.00;2.00;;;;;16.33;61.00;101106.00;5029570;28;46162;-75
2022/07/01 02:18:14;;;;;;;;;2.00;1.00;;;;;17.01;60.98;101225.28;5011316;28;45519;-74
2022/07/01 02:20:39;;;;;;;;;0.00;0.00;;;;;17.11;60.92;101239.75;5014193;28;45638;-75
2022/07/01 02:23:05;;;;;;;;;1.00;1.00;;;;;17.04;61.00;101229.78;5009585;28;46300;-74
2022/07/01 02:25:30;;;;;;;;;0.00;0.00;;;;;16.88;60.81;101205.38;5012719;28;45548;-75
2022/07/01 02:27:56;;;;;;;;;2.00;0.00;;;;;16.48;60.85;101132.19;5013687;28;45395;-75
2022/07/01 02:30:21;;;;;;;;;2.67;0.00;;;;;17.09;61.25;101244.22;5014126;28;45402;-75
2022/07/01 02:32:46;;;;;;;;;1.33;0.00;;;;;16.93;60.62;101222.53;5012388;28;45466;-75
2022/07/01 02:35:13;;;;;;;;;1.00;1.00;;;;;16.66;60.96;101181.78;5013862;28;48284;-74
2022/07/01 02:37:39;;;;;;;;;0.00;0.00;;;;;16.68;61.12;101196.19;5013608;28;45713;-75
2022/07/01 02:40:05;;;;;;;;;2.00;2.00;;;;;16.76;61.26;101198.06;5012750;28;45354;-73
2022/07/01 02:42:34;;;;;;;;;2.00;1.33;;;;;17.07;60.93;101254.09;5011466;28;46802;-74
2022/07/01 02:45:00;;;;;;;;;1.00;1.00;;;;;17.09;60.91;101250.53;5014587;28;45525;-74
2022/07/01 02:47:31;;;;;;;;;1.00;1.00;;;;;17.03;60.81;101244.19;5013968;28;45429;-75
2022/07/01 02:49:57;;;;;;;;;2.00;1.67;;;;;17.09;61.07;101266.75;5013975;28;45488;-75
2022/07/01 02:52:22;;;;;;;;;1.00;1.00;;;;;16.83;61.21;101214.28;5011305;28;45906;-74
2022/07/01 02:54:47;;;;;;;;;0.00;0.00;;;;;17.06;61.03;101269.41;5013683;28;45810;-74
2022/07/01 02:57:13;;;;;;;;;1.33;1.00;;;;;17.08;61.08;101270.31;5014338;28;45474;-75
2022/07/01 02:59:38;;;;;;;;;0.33;0.33;;;;;17.04;60.52;101265.81;5016414;28;45565;-75
2022/07/01 03:02:04;;;;;;;;;0.67;0.67;;;;;16.27;60.85;101143.69;5012292;28;45453;-75
2022/07/01 03:04:29;;;;;;;;;2.00;2.00;;;;;16.93;61.39;101265.69;5013471;28;45348;-74
2022/07/01 03:06:55;;;;;;;;;1.00;1.00;;;;;16.94;60.91;101269.28;5013754;28;45892;-76
2022/07/01 03:09:20;;;;;;;;;1.00;1.00;;;;;16.95;60.95;101273.81;5013811;28;45575;-75
2022/07/01 03:11:45;;;;;;;;;1.00;1.00;;;;;16.62;61.23;101220.44;5012842;28;46162;-74
2022/07/01 03:14:11;;;;;;;;;2.33;1.67;;;;;16.31;60.73;101160.81;5011371;28;45335;-75
2022/07/01 03:16:36;;;;;;;;;2.00;2.00;;;;;16.88;61.17;101264.75;5014482;28;45306;-75
2022/07/01 03:19:02;;;;;;;;;2.33;1.67;;;;;16.92;60.80;101268.38;5014940;28;45553;-75
2022/07/01 03:21:27;;;;;;;;;2.00;2.00;;;;;16.58;61.52;101212.31;5010846;28;45610;-75
2022/07/01 03:23:52;;;;;;;;;2.00;1.33;;;;;16.30;61.26;101165.28;5013066;28;45554;-76
2022/07/01 03:26:18;;;;;;;;;1.00;1.00;;;;;16.89;60.46;101279.16;5013099;28;45358;-75
2022/07/01 03:28:43;;;;;;;;;1.67;1.67;;;;;16.90;60.64;101275.56;5013639;28;45481;-75
2022/07/01 03:31:08;;;;;;;;;3.33;2.00;;;;;16.56;61.04;101224.88;5011931;28;46039;-75
2022/07/01 03:33:34;;;;;;;;;2.00;2.00;;;;;16.55;60.58;101211.38;5012665;28;49822;-74
2022/07/01 03:35:59;;;;;;;;;8.67;2.00;;;;;16.54;60.18;101223.94;5011668;28;45445;-74
2022/07/01 03:38:25;;;;;;;;;1.33;1.33;;;;;16.36;60.53;101210.28;5013317;28;45489;-75
2022/07/01 03:40:50;;;;;;;;;2.00;2.00;;;;;16.42;60.09;101245.41;5009765;28;45545;-75
2022/07/01 03:43:15;;;;;;;;;3.00;2.00;;;;;16.64;59.90;101260.00;5012817;28;45316;-77
2022/07/01 03:45:41;;;;;;;;;2.00;2.00;;;;;16.68;60.25;101283.44;5011462;28;45411;-76
2022/07/01 03:48:06;;;;;;;;;3.67;2.00;;;;;16.57;60.30;101280.63;5013665;28;45519;-75
2022/07/01 03:50:32;;;;;;;;;2.67;1.67;;;;;16.43;60.01;101255.28;5011871;28;46237;-75
2022/07/01 03:55:42;;;;;;;;;5.33;2.33;;;;;16.47;59.58;101262.53;5015972;28;45402;-74
2022/07/01 03:58:07;;;;;;;;;1.00;1.00;;;;;16.67;59.93;101297.81;5016377;28;45560;-75
2022/07/01 04:00:35;;;;;;;;;1.00;1.00;;;;;16.58;60.06;101300.41;5013276;28;46866;-75
2022/07/01 04:03:01;;;;;;;;;1.00;1.00;;;;;16.42;59.74;101293.94;5014922;28;45495;-74
2022/07/01 04:05:26;;;;;;;;;3.00;1.00;;;;;16.44;60.41;101299.38;5015904;28;45485;-75
2022/07/01 04:07:52;;;;;;;;;0.67;0.67;;;;;15.86;60.23;101216.94;5016329;28;45429;-74
2022/07/01 04:10:17;;;;;;;;;1.67;1.33;;;;;16.04;60.52;101256.66;5014946;28;45915;-74
2022/07/01 04:12:43;;;;;;;;;1.67;1.67;;;;;16.36;60.52;101316.34;5004985;28;45554;-74
2022/07/01 04:15:09;;;;;;;;;3.00;3.00;;;;;16.03;60.55;101271.03;5017206;28;45448;-74
2022/07/01 04:17:35;;;;;;;;;1.00;1.00;;;;;15.79;60.99;101232.13;5014389;28;45627;-74
2022/07/01 04:20:00;;;;;;;;;2.00;2.00;;;;;16.13;60.52;101302.59;5008753;28;46310;-74
2022/07/01 04:22:38;;;;;;;;;4.33;1.67;;;;;16.14;61.40;101325.06;5015664;28;45474;-73
2022/07/01 04:25:04;;;;;;;;;1.00;1.00;;;;;16.08;61.48;101323.19;5014876;28;45586;-75
2022/07/01 04:27:30;;;;;;;;;2.00;1.33;;;;;16.07;61.79;101323.16;5014926;28;45367;-73
2022/07/01 04:29:56;;;;;;;;;0.67;0.67;;;;;16.09;61.39;101326.81;5014786;28;46471;-73
2022/07/01 04:32:22;;;;;;;;;2.67;1.67;;;;;15.70;61.64;101244.53;5017271;28;45338;-74
2022/07/01 04:34:48;;;;;;;;;0.67;0.67;;;;;16.16;61.59;101326.00;5015760;28;45406;-74
2022/07/01 04:37:13;;;;;;;;;1.67;0.67;;;;;16.03;61.48;101314.16;5016753;28;45368;-75
2022/07/01 04:39:38;;;;;;;;;4.33;3.00;;;;;15.94;61.46;101319.44;5013807;28;46233;-74
2022/07/01 04:42:04;;;;;;;;;2.67;0.67;;;;;15.63;61.93;101257.91;5015419;28;45521;-74
2022/07/01 04:44:32;;;;;;;;;1.67;1.67;;;;;15.40;62.14;101236.03;5032139;28;45559;-75
2022/07/01 04:46:58;;;;;;;;;1.33;0.67;;;;;15.94;62.24;101330.22;5015692;28;45304;-74
2022/07/01 04:49:24;;;;;;;;;2.33;1.00;;;;;14.74;62.21;101138.19;5013239;28;46098;-74
2022/07/01 04:51:49;;;;;;;;;0.67;0.67;;;;;15.91;62.66;101344.53;5018400;28;45321;-74
2022/07/01 04:54:15;;;;;;;;;0.67;0.67;;;;;15.87;62.50;101333.69;5016812;28;45415;-73
2022/07/01 04:56:40;;;;;;;;;2.67;1.33;;;;;15.51;62.45;101244.28;5016065;28;45541;-75
2022/07/01 04:59:06;;;;;;;;;1.67;1.67;;;;;15.70;61.87;101280.44;5011563;28;46139;-76
2022/07/01 05:01:31;;;;;;;;;5.00;5.00;;;;;16.08;61.73;101342.06;5013994;28;45546;-75
2022/07/01 05:03:57;;;;;;;;;2.67;2.00;;;;;15.84;61.54;101302.22;5015491;28;45500;-75
2022/07/01 05:06:23;;;;;;;;;4.33;2.00;;;;;15.83;61.41;101305.78;5015263;28;45510;-75
2022/07/01 05:08:48;;;;;;;;;2.33;2.00;;;;;15.83;61.40;101312.09;5013619;28;45489;-75
2022/07/01 05:11:14;;;;;;;;;6.67;5.00;;;;;15.27;61.72;101224.16;5012043;28;45395;-74
2022/07/01 05:13:39;;;;;;;;;3.33;2.67;;;;;16.07;61.47;101363.59;5014542;28;45292;-74
2022/07/01 05:16:06;;;;;;;;;4.33;3.00;;;;;16.03;61.54;101347.38;5012623;28;45436;-74
2022/07/01 05:23:59;;;;;;;;;2.00;2.00;;;;;16.21;61.14;101356.59;5014730;28;45367;-75
2022/07/01 05:26:25;;;;;;;;;1.33;1.33;;;;;14.84;61.41;101121.28;5014685;28;45541;-76
2022/07/01 05:28:52;;;;;;;;;1.67;1.67;;;;;16.20;60.90;101352.09;5012550;28;46024;-75
2022/07/01 05:31:18;;;;;;;;;2.33;1.00;;;;;16.27;61.11;101354.00;5012354;28;45515;-74
2022/07/01 05:33:44;;;;;;;;;14.75;12.25;;;;;16.38;60.18;101352.34;5013522;28;45429;-76
2022/07/01 05:36:10;;;;;;;;;26.75;25.50;;;;;16.38;60.12;101341.56;5014327;28;45417;-75
2022/07/01 05:38:36;;;;;;;;;3.67;3.67;;;;;16.57;58.92;101360.66;5014533;28;46067;-77
2022/07/01 05:41:02;;;;;;;;;6.67;6.00;;;;;16.19;59.01;101299.09;5014283;28;45421;-75
2022/07/01 05:43:27;;;;;;;;;2.67;2.67;;;;;16.27;58.46;101318.94;5013314;28;45468;-75
2022/07/01 05:45:53;;;;;;;;;2.00;2.00;;;;;16.51;58.16;101357.88;5014586;28;45336;-76
2022/07/01 05:48:18;;;;;;;;;2.67;2.00;;;;;16.55;57.91;101371.41;5013912;28;46607;-75
2022/07/01 05:50:44;;;;;;;;;2.33;1.00;;;;;16.41;57.72;101351.47;5014436;28;45478;-75
2022/07/01 05:53:09;;;;;;;;;3.00;1.67;;;;;15.95;57.45;101302.34;5012072;28;45532;-73
2022/07/01 05:55:35;;;;;;;;;2.00;2.00;;;;;16.51;57.24;101363.28;5014119;28;45483;-74
2022/07/01 05:58:01;;;;;;;;;3.00;3.00;;;;;16.51;57.17;101364.16;5024891;28;45772;-76
2022/07/01 06:00:27;;;;;;;;;3.00;3.00;;;;;16.34;57.07;101333.41;5028418;28;45200;-75
2022/07/01 06:02:52;;;;;;;;;2.67;1.67;;;;;16.57;56.52;101375.03;5030067;28;45147;-73
2022/07/01 06:05:18;;;;;;;;;1.00;1.00;;;;;16.50;56.79;101343.50;5028921;28;45512;-74
2022/07/01 06:07:43;;;;;;;;;1.00;1.00;;;;;16.47;56.10;101345.25;5030823;28;45471;-75
2022/07/01 06:10:10;;;;;;;;;2.00;1.00;;;;;16.54;55.45;101355.22;5029631;28;45237;-74
2022/07/01 06:12:36;;;;;;;;;4.33;4.33;;;;;16.32;56.11;101317.22;5027892;28;45198;-73
2022/07/01 06:15:01;;;;;;;;;1.00;1.00;;;;;16.54;55.58;101350.72;5032996;28;45125;-75
2022/07/01 06:17:26;;;;;;;;;2.00;2.00;;;;;16.83;55.45;101387.94;5030346;28;45576;-74
2022/07/01 06:19:53;;;;;;;;;0.67;0.67;;;;;16.23;54.60;101271.25;5020764;28;45567;-76
2022/07/01 06:22:20;;;;;;;;;12.75;10.25;;;;;16.89;54.91;101377.22;5019643;28;45722;-72
2022/07/01 06:24:46;;;;;;;;;26.50;20.75;;;;;15.87;54.42;101191.78;5012202;28;45833;-73
2022/07/01 06:27:12;;;;;;;;;2.67;2.33;;;;;16.74;54.31;101320.34;5010597;28;48184;-76
2022/07/01 06:29:37;;;;;;;;;0.00;0.00;;;;;17.10;54.72;101386.44;5013628;28;45454;-75
2022/07/01 06:32:05;;;;;;;;;2.00;2.00;;;;;17.08;54.37;101367.50;5014051;28;45509;-73
2022/07/01 06:34:30;;;;;;;;;1.00;1.00;;;;;17.26;54.17;101392.91;5015950;28;45296;-76
2022/07/01 06:36:55;;;;;;;;;1.33;1.33;;;;;17.30;54.43;101389.31;5013958;28;45559;-73
2022/07/01 06:39:21;;;;;;;;;6.00;4.33;;;;;17.00;54.36;101319.75;5013070;28;45510;-73
2022/07/01 06:41:46;;;;;;;;;3.00;2.00;;;;;17.50;53.83;101387.69;5013290;28;45786;-75
2022/07/01 06:44:12;;;;;;;;;1.67;1.67;;;;;17.58;53.23;101397.66;5013919;28;45546;-75
2022/07/01 06:46:37;;;;;;;;;2.67;2.00;;;;;17.66;53.07;101396.81;5012950;28;45779;-74
2022/07/01 06:49:03;;;;;;;;;1.33;1.33;;;;;17.40;52.24;101337.16;5013998;28;45678;-75
2022/07/01 06:51:29;;;;;;;;;2.33;1.33;;;;;17.79;52.47;101392.41;5013305;28;45518;-76
2022/07/01 06:53:57;;;;;;;;;8.67;6.33;;;;;17.56;52.02;101356.22;5013307;28;45373;-74
2022/07/01 06:56:22;;;;;;;;;1.00;1.00;;;;;17.86;52.13;101382.53;5012790;28;46436;-75
2022/07/01 06:58:48;;;;;;;;;2.67;2.00;;;;;17.86;52.17;101379.84;5011580;28;45375;-75
2022/07/01 07:01:13;;;;;;;;;0.33;0.33;;;;;18.03;51.74;101396.19;5012938;28;45927;-74
2022/07/01 07:03:38;;;;;;;;;4.00;2.33;;;;;18.03;51.63;101404.28;5013171;28;45202;-74
2022/07/01 07:06:04;;;;;;;;;3.00;1.00;;;;;17.59;51.11;101304.91;5013271;28;46246;-75
2022/07/01 07:08:31;;;;;;;;;4.00;3.00;;;;;17.91;50.42;101355.56;5015401;28;45379;-75
2022/07/01 07:10:56;;;;;;;;;3.67;2.33;;;;;18.18;50.46;101407.13;4998589;28;45518;-74
2022/07/01 07:13:22;;;;;;;;;1.33;1.00;;;;;17.59;49.97;101297.69;5012021;28;45919;-75
2022/07/01 07:15:47;;;;;;;;;1.00;1.00;;;;;17.99;49.94;101370.03;5006705;28;45834;-72
2022/07/01 07:18:13;;;;;;;;;0.00;0.00;;;;;18.08;48.70;101374.59;5012991;28;45473;-74
2022/07/01 07:20:38;;;;;;;;;2.00;0.33;;;;;18.02;48.31;101340.31;5009574;28;45886;-74
2022/07/01 07:23:04;;;;;;;;;2.00;1.00;;;;;17.54;47.76;101267.06;5013257;28;45423;-77
2022/07/01 07:25:30;;;;;;;;;3.00;1.00;;;;;18.27;47.23;101367.50;5014281;28;45355;-76
2022/07/01 07:27:55;;;;;;;;;2.00;1.67;;;;;18.41;47.14;101390.06;5016211;28;45300;-76
2022/07/01 07:30:21;;;;;;;;;4.00;1.00;;;;;18.14;47.05;101358.41;5016068;28;45500;-76
2022/07/01 07:32:46;;;;;;;;;2.00;0.33;;;;;18.08;46.89;101351.16;5016598;28;45521;-74
2022/07/01 07:35:13;;;;;;;;;19.67;10.67;;;;;18.55;46.84;101393.75;5015796;28;45602;-74
2022/07/01 07:37:39;;;;;;;;;2.33;0.67;;;;;17.87;46.00;101265.47;5016096;28;45500;-73
2022/07/01 07:40:07;;;;;;;;;1.00;1.00;;;;;18.12;46.47;101316.94;5015553;28;45531;-76
2022/07/01 07:42:33;;;;;;;;;1.00;1.00;;;;;18.48;46.00;101382.88;5016609;28;46072;-76
2022/07/01 07:44:59;;;;;;;;;2.33;2.33;;;;;18.40;45.84;101347.69;5014130;28;46365;-76
2022/07/01 07:47:25;;;;;;;;;1.00;1.00;;;;;18.74;45.91;101396.50;5015008;28;45489;-75
2022/07/01 07:49:50;;;;;;;;;1.00;1.00;;;;;18.67;46.29;101376.63;5013993;28;45372;-75
2022/07/01 07:52:15;;;;;;;;;1.00;1.00;;;;;18.40;46.12;101294.50;5016786;28;45569;-76
2022/07/01 07:54:41;;;;;;;;;1.00;1.00;;;;;18.64;45.85;101276.50;5011295;28;45615;-75
2022/07/01 07:57:07;;;;;;;;;2.00;0.00;;;;;19.55;44.75;101387.66;5012190;28;45573;-73
2022/07/01 07:59:33;;;;;;;;;3.67;2.33;;;;;19.37;44.46;101352.41;5020499;28;45324;-76
2022/07/01 08:01:58;;;;;;;;;4.67;1.67;;;;;19.43;43.77;101346.97;5017375;28;45367;-76
2022/07/01 08:04:24;;;;;;;;;1.00;1.00;;;;;19.76;43.37;101394.88;5016918;28;45591;-76
2022/07/01 08:06:49;;;;;;;;;2.33;1.00;;;;;19.74;43.70;101398.47;5019624;28;45465;-76
2022/07/01 08:09:15;;;;;;;;;3.67;0.33;;;;;19.73;43.64;101391.22;5020784;28;45536;-76
2022/07/01 08:11:40;;;;;;;;;1.00;1.00;;;;;19.67;43.37;101379.50;5021160;28;45395;-75
2022/07/01 08:14:05;;;;;;;;;3.00;2.00;;;;;19.73;43.22;101391.22;5021479;28;46070;-76
2022/07/01 08:16:31;;;;;;;;;3.00;2.00;;;;;19.64;42.84;101356.91;5018067;28;45753;-74
2022/07/01 08:18:57;;;;;;;;;1.00;1.00;;;;;19.90;42.27;101405.72;5015759;28;45493;-77
2022/07/01 08:21:23;;;;;;;;;5.00;3.00;;;;;19.21;41.54;101281.09;5016289;28;45288;-75
2022/07/01 08:23:48;;;;;;;;;3.00;1.00;;;;;19.04;41.53;101238.66;5014353;28;47237;-76
2022/07/01 08:26:15;;;;;;;;;5.33;3.33;;;;;19.36;41.49;101274.75;5015522;28;45453;-75
2022/07/01 08:28:41;;;;;;;;;2.33;1.67;;;;;20.05;41.11;101400.25;5015876;28;45626;-74
2022/07/01 08:31:07;;;;;;;;;1.33;1.00;;;;;20.17;40.21;101409.25;5014832;28;45421;-77
2022/07/01 08:33:32;;;;;;;;;3.00;1.00;;;;;20.01;40.30;101381.25;5015173;28;45437;-75
2022/07/01 08:35:58;;;;;;;;;1.00;1.00;;;;;19.93;39.80;101353.25;5014928;28;45435;-75
2022/07/01 08:38:23;;;;;;;;;1.00;0.67;;;;;20.15;39.41;101401.13;5015698;28;45569;-74
2022/07/01 08:40:49;;;;;;;;;4.33;3.00;;;;;20.24;38.95;101420.09;5015656;28;45556;-75
2022/07/01 08:43:14;;;;;;;;;0.00;0.00;;;;;19.81;39.04;101344.25;5014161;28;47483;-73
2022/07/01 08:45:41;;;;;;;;;2.67;1.67;;;;;19.81;39.46;101306.28;5015556;28;45265;-75
2022/07/01 08:48:06;;;;;;;;;0.00;0.00;;;;;20.54;38.96;101407.34;5014897;28;45520;-76
2022/07/01 08:50:36;;;;;;;;;1.00;0.00;;;;;20.52;39.37;101410.94;5015728;28;45631;-74
2022/07/01 08:53:02;;;;;;;;;0.33;0.33;;;;;20.15;38.61;101364.97;5014840;28;45469;-75
2022/07/01 08:55:28;;;;;;;;;0.67;0.67;;;;;20.45;39.17;101420.94;5014504;28;45458;-75
2022/07/01 08:57:53;;;;;;;;;0.00;0.00;;;;;20.35;39.14;101400.16;5014971;28;45556;-74
2022/07/01 09:00:20;;;;;;;;;3.33;1.67;;;;;20.55;38.58;101424.50;5015388;28;46769;-75
2022/07/01 09:03:03;;;;;;;;;0.67;0.67;;;;;20.42;38.56;101402.84;5020676;28;46050;-75
2022/07/01 09:05:30;;;;;;;;;2.00;1.33;;;;;20.49;38.35;101420.03;5014614;28;45355;-75
2022/07/01 09:08:00;;;;;;;;;3.00;2.00;;;;;20.75;38.51;101429.88;5014984;28;45387;-74
2022/07/01 09:10:26;;;;;;;;;2.00;1.00;;;;;20.83;38.42;101429.84;5015127;28;45515;-75
2022/07/01 09:12:51;;;;;;;;;3.00;1.33;;;;;20.84;38.41;101421.72;5014530;28;45474;-76
2022/07/01 09:15:25;;;;;;;;;1.67;1.67;;;;;20.71;38.33;101410.00;5014476;28;45427;-76
2022/07/01 09:17:53;;;;;;;;;4.67;4.67;;;;;20.83;38.21;101416.28;5014968;28;45485;-75
2022/07/01 09:20:27;;;;;;;;;0.67;0.67;;;;;20.77;38.45;101399.09;5014714;28;45542;-76
2022/07/01 09:23:07;;;;;;;;;1.00;1.00;;;;;20.90;38.74;101390.88;5014531;28;45994;-74
2022/07/01 09:25:43;;;;;;;;;2.00;2.00;;;;;20.99;38.31;101404.41;5014216;28;45500;-74
2022/07/01 09:28:14;;;;;;;;;3.33;3.33;;;;;21.26;38.20;101432.31;5014681;28;45628;-74
2022/07/01 09:30:42;;;;;;;;;3.33;2.00;;;;;21.08;38.00;101431.50;5014782;28;45406;-77
2022/07/01 09:33:14;;;;;;;;;0.33;0.33;;;;;21.05;38.42;101422.47;5012832;28;47031;-74
2022/07/01 09:35:41;;;;;;;;;0.67;0.67;;;;;20.97;37.80;101408.97;5014520;28;45446;-75
2022/07/01 09:38:09;;;;;;;;;0.00;0.00;;;;;21.21;37.98;101443.22;5014794;28;45453;-77
2022/07/01 09:40:53;;;;;;;;;0.00;0.00;;;;;21.23;38.09;101435.03;5015571;28;45131;-76
2022/07/01 09:43:25;;;;;;;;;0.67;0.67;;;;;21.31;38.24;101439.50;5014143;28;45493;-75
2022/07/01 09:46:00;;;;;;;;;3.00;1.00;;;;;21.25;37.97;101445.00;5014294;28;45312;-76
2022/07/01 09:48:44;;;;;;;;;0.67;0.00;;;;;21.19;38.20;101412.44;5016586;28;45437;-75
2022/07/01 09:51:11;;;;;;;;;1.67;1.67;;;;;21.35;38.21;101421.38;5017724;28;45706;-75
2022/07/01 09:53:37;;;;;;;;;1.00;1.00;;;;;21.47;37.63;101415.88;5015712;28;45387;-75
2022/07/01 09:56:03;;;;;;;;;0.00;0.00;;;;;21.57;37.24;101410.38;5016912;28;45480;-75
2022/07/01 09:58:28;;;;;;;;;0.00;0.00;;;;;21.50;37.29;101406.81;5014567;28;45616;-74
2022/07/01 10:00:54;;;;;;;;;1.33;1.33;;;;;21.61;37.72;101414.84;5012887;28;45526;-75
2022/07/01 10:03:21;;;;;;;;;1.00;1.00;;;;;21.74;37.14;101438.31;5014429;28;46361;-77
2022/07/01 10:06:14;;;;;;;;;0.00;0.00;;;;;21.43;37.39;101375.09;5015862;28;45299;-75
2022/07/01 10:08:49;;;;;;;;;0.00;0.00;;;;;21.84;36.74;101445.44;5014000;28;45413;-75
2022/07/01 10:11:42;;;;;;;;;21.25;21.00;;;;;21.73;36.68;101384.84;5008583;28;45556;-75
2022/07/01 10:14:09;;;;;;;;;2.33;1.67;;;;;22.12;36.53;101434.31;5013224;28;46223;-76
2022/07/01 10:16:36;;;;;;;;;1.00;1.00;;;;;22.14;35.92;101440.66;5013822;28;45489;-75
2022/07/01 10:19:29;;;;;;;;;4.00;1.00;;;;;22.11;36.59;101442.47;5013565;28;45491;-75
2022/07/01 10:21:59;;;;;;;;;1.67;1.67;;;;;21.68;37.08;101395.75;5012979;28;45448;-74
2022/07/01 10:24:26;;;;;;;;;1.00;1.00;;;;;21.98;37.08;101453.50;5013427;28;46888;-75
2022/07/01 10:26:52;;;;;;;;;6.00;6.00;;;;;21.63;36.66;101351.38;5013481;28;45587;-75
2022/07/01 10:29:38;;;;;;;;;1.33;1.33;;;;;22.26;36.96;101442.34;5013557;28;45332;-76
2022/07/01 10:32:24;;;;;;;;;3.00;3.00;;;;;22.29;36.75;101441.41;5013699;28;45463;-77
2022/07/01 10:34:50;;;;;;;;;1.00;1.00;;;;;22.24;36.85;101455.97;5013186;28;45588;-75
2022/07/01 10:37:17;;;;;;;;;2.00;2.00;;;;;21.97;37.06;101375.50;5013046;28;45571;-74
2022/07/01 10:39:54;;;;;;;;;5.00;5.00;;;;;22.32;36.73;101438.66;5013147;28;45490;-75
2022/07/01 10:42:19;;;;;;;;;7.00;5.00;;;;;22.14;36.81;101405.28;5013433;28;45533;-76
2022/07/01 10:45:08;;;;;;;;;6.00;5.33;;;;;22.20;37.14;101446.00;5012716;28;45341;-78
2022/07/01 10:47:34;;;;;;;;;0.67;0.67;;;;;21.68;36.56;101354.97;5008373;28;45491;-76
2022/07/01 10:50:08;;;;;;;;;2.00;1.00;;;;;22.03;36.96;101440.75;5011601;28;45516;-75
2022/07/01 10:52:33;;;;;;;;;0.00;0.00;;;;;21.55;36.89;101369.59;5013433;28;45588;-74
2022/07/01 10:55:00;;;;;;;;;2.00;1.00;;;;;21.97;37.24;101440.81;5012713;28;45474;-75
2022/07/01 10:57:40;;;;;;;;;1.00;1.00;;;;;21.80;37.30;101399.28;5012906;28;45459;-75
2022/07/01 11:00:05;;;;;;;;;1.33;1.33;;;;;22.14;36.29;101434.28;5012919;28;45438;-76
2022/07/01 11:02:36;;;;;;;;;2.67;1.00;;;;;22.03;35.12;101404.50;5013644;28;45673;-75
2022/07/01 11:05:04;;;;;;;;;6.00;3.33;;;;;22.03;35.38;101401.75;5012822;28;46019;-75
2022/07/01 11:07:32;;;;;;;;;1.00;1.00;;;;;21.85;35.93;101371.09;5012359;28;45496;-75
2022/07/01 11:10:01;;;;;;;;;1.00;1.00;;;;;21.48;36.02;101313.44;5027401;28;46246;-75
2022/07/01 11:12:28;;;;;;;;;2.00;2.00;;;;;21.99;36.57;101425.38;5013661;28;45779;-75
2022/07/01 11:14:57;;;;;;;;;2.33;1.67;;;;;21.40;36.68;101345.22;5012733;28;45423;-75
2022/07/01 11:17:22;;;;;;;;;0.00;0.00;;;;;21.76;36.98;101419.25;5012835;28;45536;-75
2022/07/01 11:19:53;;;;;;;;;0.00;0.00;;;;;21.76;36.93;101417.41;5013793;28;45466;-77
2022/07/01 11:22:20;;;;;;;;;4.33;4.33;;;;;22.07;36.85;101441.63;5013722;28;45573;-76
2022/07/01 11:24:51;;;;;;;;;2.67;2.00;;;;;22.19;35.80;101438.78;5013136;28;45567;-76
2022/07/01 11:27:16;;;;;;;;;1.00;1.00;;;;;21.99;35.05;101392.75;5015546;28;45372;-74
2022/07/01 11:29:42;;;;;;;;;2.00;2.00;;;;;22.27;35.34;101433.25;5016870;28;45620;-76
2022/07/01 11:32:07;;;;;;;;;3.67;1.67;;;;;22.31;35.37;101426.88;5017574;28;45214;-75